sensor_id;sensor_type;location;lat;lon;timestamp;P1;durP1;ratioP1;P2;durP2;ratioP2
28802;SDS011;15949;55.656;37.422;2022-11-30T00:04:16;35.58;;;14.68;;
28802;SDS011;15949;55.656;37.422;2022-11-30T00:09:22;32.63;;;14.10;;
28802;SDS011;15949;55.656;37.422;2022-11-30T00:14:28;35.30;;;14.07;;
28802;SDS011;15949;55.656;37.422;2022-11-30T00:19:34;32.25;;;13.82;;
28802;SDS011;15949;55.656;37.422;2022-11-30T00:24:39;30.52;;;15.88;;
28802;SDS011;15949;55.656;37.422;2022-11-30T00:29:45;29.95;;;14.27;;
28802;SDS011;15949;55.656;37.422;2022-11-30T00:34:50;32.72;;;14.73;;
28802;SDS011;15949;55.656;37.422;2022-11-30T00:39:56;34.63;;;15.55;;
28802;SDS011;15949;55.656;37.422;2022-11-30T00:45:02;31.27;;;14.23;;
28802;SDS011;15949;55.656;37.422;2022-11-30T00:50:07;28.27;;;14.60;;
28802;SDS011;15949;55.656;37.422;2022-11-30T00:55:13;32.78;;;15.30;;
28802;SDS011;15949;55.656;37.422;2022-11-30T01:00:19;32.92;;;15.00;;
28802;SDS011;15949;55.656;37.422;2022-11-30T01:05:25;35.30;;;15.40;;
28802;SDS011;15949;55.656;37.422;2022-11-30T01:10:31;31.80;;;15.70;;
28802;SDS011;15949;55.656;37.422;2022-11-30T01:15:38;40.55;;;15.95;;
28802;SDS011;15949;55.656;37.422;2022-11-30T01:20:46;33.35;;;15.75;;
28802;SDS011;15949;55.656;37.422;2022-11-30T01:25:52;34.15;;;15.77;;
28802;SDS011;15949;55.656;37.422;2022-11-30T01:31:00;34.58;;;16.15;;
28802;SDS011;15949;55.656;37.422;2022-11-30T01:36:09;32.78;;;15.93;;
28802;SDS011;15949;55.656;37.422;2022-11-30T01:41:24;29.08;;;15.73;;
28802;SDS011;15949;55.656;37.422;2022-11-30T01:47:05;30.92;;;15.27;;
28802;SDS011;15949;55.656;37.422;2022-11-30T01:52:14;32.13;;;14.05;;
28802;SDS011;15949;55.656;37.422;2022-11-30T01:57:25;31.00;;;15.15;;
28802;SDS011;15949;55.656;37.422;2022-11-30T02:08:03;32.88;;;15.23;;
28802;SDS011;15949;55.656;37.422;2022-11-30T02:34:43;36.80;;;15.63;;
28802;SDS011;15949;55.656;37.422;2022-11-30T02:39:52;36.75;;;15.95;;
28802;SDS011;15949;55.656;37.422;2022-11-30T02:44:57;32.45;;;14.90;;
28802;SDS011;15949;55.656;37.422;2022-11-30T02:50:05;36.30;;;16.00;;
28802;SDS011;15949;55.656;37.422;2022-11-30T02:55:16;35.33;;;16.27;;
28802;SDS011;15949;55.656;37.422;2022-11-30T03:00:23;33.72;;;16.27;;
28802;SDS011;15949;55.656;37.422;2022-11-30T03:05:29;35.67;;;15.48;;
28802;SDS011;15949;55.656;37.422;2022-11-30T03:10:35;37.42;;;15.80;;
28802;SDS011;15949;55.656;37.422;2022-11-30T03:15:40;37.72;;;15.77;;
28802;SDS011;15949;55.656;37.422;2022-11-30T03:20:46;32.95;;;16.83;;
28802;SDS011;15949;55.656;37.422;2022-11-30T03:25:55;40.20;;;17.33;;
28802;SDS011;15949;55.656;37.422;2022-11-30T03:31:02;38.92;;;17.40;;
28802;SDS011;15949;55.656;37.422;2022-11-30T03:36:09;39.97;;;16.48;;
28802;SDS011;15949;55.656;37.422;2022-11-30T03:41:16;31.17;;;15.57;;
28802;SDS011;15949;55.656;37.422;2022-11-30T03:46:22;73.95;;;29.05;;
28802;SDS011;15949;55.656;37.422;2022-11-30T03:51:28;36.95;;;17.23;;
28802;SDS011;15949;55.656;37.422;2022-11-30T03:56:34;37.67;;;17.00;;
28802;SDS011;15949;55.656;37.422;2022-11-30T04:01:40;39.05;;;16.88;;
28802;SDS011;15949;55.656;37.422;2022-11-30T04:06:45;38.80;;;16.35;;
28802;SDS011;15949;55.656;37.422;2022-11-30T04:11:51;37.17;;;16.42;;
28802;SDS011;15949;55.656;37.422;2022-11-30T04:16:56;36.05;;;17.63;;
28802;SDS011;15949;55.656;37.422;2022-11-30T04:22:02;37.05;;;17.58;;
28802;SDS011;15949;55.656;37.422;2022-11-30T04:27:07;36.05;;;17.42;;
28802;SDS011;15949;55.656;37.422;2022-11-30T04:32:13;34.20;;;16.45;;
28802;SDS011;15949;55.656;37.422;2022-11-30T04:37:18;40.72;;;18.50;;
28802;SDS011;15949;55.656;37.422;2022-11-30T04:42:24;39.20;;;18.65;;
28802;SDS011;15949;55.656;37.422;2022-11-30T04:47:30;41.30;;;19.80;;
28802;SDS011;15949;55.656;37.422;2022-11-30T04:52:35;36.67;;;17.45;;
28802;SDS011;15949;55.656;37.422;2022-11-30T04:57:41;42.90;;;18.70;;
28802;SDS011;15949;55.656;37.422;2022-11-30T05:02:47;40.10;;;18.35;;
28802;SDS011;15949;55.656;37.422;2022-11-30T05:07:56;40.65;;;18.42;;
28802;SDS011;15949;55.656;37.422;2022-11-30T05:13:02;46.80;;;18.88;;
28802;SDS011;15949;55.656;37.422;2022-11-30T05:18:08;39.17;;;18.85;;
28802;SDS011;15949;55.656;37.422;2022-11-30T05:23:14;38.70;;;18.80;;
28802;SDS011;15949;55.656;37.422;2022-11-30T05:28:20;42.60;;;19.88;;
28802;SDS011;15949;55.656;37.422;2022-11-30T05:33:26;40.65;;;19.80;;
28802;SDS011;15949;55.656;37.422;2022-11-30T05:38:32;41.58;;;19.50;;
28802;SDS011;15949;55.656;37.422;2022-11-30T05:43:37;42.25;;;19.50;;
28802;SDS011;15949;55.656;37.422;2022-11-30T05:48:44;42.30;;;20.52;;
28802;SDS011;15949;55.656;37.422;2022-11-30T05:53:49;41.80;;;19.52;;
28802;SDS011;15949;55.656;37.422;2022-11-30T05:58:55;38.10;;;19.00;;
28802;SDS011;15949;55.656;37.422;2022-11-30T06:04:03;48.25;;;20.85;;
28802;SDS011;15949;55.656;37.422;2022-11-30T06:09:10;75.32;;;27.85;;
28802;SDS011;15949;55.656;37.422;2022-11-30T06:14:15;48.97;;;23.98;;
28802;SDS011;15949;55.656;37.422;2022-11-30T06:19:21;56.33;;;21.10;;
28802;SDS011;15949;55.656;37.422;2022-11-30T06:24:27;47.80;;;22.23;;
28802;SDS011;15949;55.656;37.422;2022-11-30T06:29:32;52.25;;;19.95;;
28802;SDS011;15949;55.656;37.422;2022-11-30T06:34:38;47.72;;;21.75;;
28802;SDS011;15949;55.656;37.422;2022-11-30T06:39:44;48.35;;;21.00;;
28802;SDS011;15949;55.656;37.422;2022-11-30T06:44:49;49.65;;;21.73;;
28802;SDS011;15949;55.656;37.422;2022-11-30T06:49:55;45.25;;;20.45;;
28802;SDS011;15949;55.656;37.422;2022-11-30T06:55:01;45.63;;;21.95;;
28802;SDS011;15949;55.656;37.422;2022-11-30T07:00:06;46.38;;;22.60;;
28802;SDS011;15949;55.656;37.422;2022-11-30T07:05:12;43.88;;;20.80;;
28802;SDS011;15949;55.656;37.422;2022-11-30T07:10:18;43.13;;;21.08;;
28802;SDS011;15949;55.656;37.422;2022-11-30T07:15:26;50.00;;;21.87;;
28802;SDS011;15949;55.656;37.422;2022-11-30T07:20:32;44.88;;;21.27;;
28802;SDS011;15949;55.656;37.422;2022-11-30T07:25:38;42.22;;;21.52;;
28802;SDS011;15949;55.656;37.422;2022-11-30T07:31:18;49.95;;;22.20;;
28802;SDS011;15949;55.656;37.422;2022-11-30T07:36:28;47.72;;;21.50;;
28802;SDS011;15949;55.656;37.422;2022-11-30T07:41:35;45.95;;;22.98;;
28802;SDS011;15949;55.656;37.422;2022-11-30T07:46:41;46.60;;;23.10;;
28802;SDS011;15949;55.656;37.422;2022-11-30T07:51:47;48.25;;;22.85;;
28802;SDS011;15949;55.656;37.422;2022-11-30T07:56:52;48.42;;;24.73;;
28802;SDS011;15949;55.656;37.422;2022-11-30T08:01:58;55.47;;;23.90;;
28802;SDS011;15949;55.656;37.422;2022-11-30T08:07:04;47.00;;;24.00;;
28802;SDS011;15949;55.656;37.422;2022-11-30T08:12:10;48.72;;;24.08;;
28802;SDS011;15949;55.656;37.422;2022-11-30T08:17:16;55.45;;;23.70;;
28802;SDS011;15949;55.656;37.422;2022-11-30T08:22:21;54.38;;;25.20;;
28802;SDS011;15949;55.656;37.422;2022-11-30T08:27:27;54.53;;;25.17;;
28802;SDS011;15949;55.656;37.422;2022-11-30T08:32:33;59.38;;;24.50;;
28802;SDS011;15949;55.656;37.422;2022-11-30T08:37:38;50.15;;;24.88;;
28802;SDS011;15949;55.656;37.422;2022-11-30T08:42:44;52.53;;;26.00;;
28802;SDS011;15949;55.656;37.422;2022-11-30T08:47:49;52.75;;;25.83;;
28802;SDS011;15949;55.656;37.422;2022-11-30T08:52:55;57.03;;;26.77;;
28802;SDS011;15949;55.656;37.422;2022-11-30T08:58:01;54.33;;;28.10;;
28802;SDS011;15949;55.656;37.422;2022-11-30T09:03:06;57.03;;;27.75;;
28802;SDS011;15949;55.656;37.422;2022-11-30T09:08:12;52.67;;;26.85;;
28802;SDS011;15949;55.656;37.422;2022-11-30T09:13:17;54.63;;;26.73;;
28802;SDS011;15949;55.656;37.422;2022-11-30T09:18:23;57.03;;;28.88;;
28802;SDS011;15949;55.656;37.422;2022-11-30T09:23:29;57.33;;;27.67;;
28802;SDS011;15949;55.656;37.422;2022-11-30T09:28:34;56.78;;;27.83;;
28802;SDS011;15949;55.656;37.422;2022-11-30T09:33:41;52.17;;;27.08;;
28802;SDS011;15949;55.656;37.422;2022-11-30T09:38:46;52.50;;;27.52;;
28802;SDS011;15949;55.656;37.422;2022-11-30T09:59:43;55.30;;;26.77;;
28802;SDS011;15949;55.656;37.422;2022-11-30T10:04:53;64.32;;;28.05;;
28802;SDS011;15949;55.656;37.422;2022-11-30T10:15:46;62.20;;;28.83;;
28802;SDS011;15949;55.656;37.422;2022-11-30T10:26:31;61.05;;;28.33;;
28802;SDS011;15949;55.656;37.422;2022-11-30T10:31:39;63.10;;;28.83;;
28802;SDS011;15949;55.656;37.422;2022-11-30T10:36:49;60.40;;;29.60;;
28802;SDS011;15949;55.656;37.422;2022-11-30T10:42:00;57.97;;;28.17;;
28802;SDS011;15949;55.656;37.422;2022-11-30T10:47:20;62.97;;;29.15;;
28802;SDS011;15949;55.656;37.422;2022-11-30T10:52:29;66.68;;;29.35;;
28802;SDS011;15949;55.656;37.422;2022-11-30T10:57:38;60.85;;;28.88;;
28802;SDS011;15949;55.656;37.422;2022-11-30T11:02:45;65.65;;;30.30;;
28802;SDS011;15949;55.656;37.422;2022-11-30T11:08:01;68.43;;;30.92;;
28802;SDS011;15949;55.656;37.422;2022-11-30T11:18:55;62.78;;;29.05;;
28802;SDS011;15949;55.656;37.422;2022-11-30T11:24:02;57.95;;;28.60;;
28802;SDS011;15949;55.656;37.422;2022-11-30T11:29:21;58.40;;;28.73;;
28802;SDS011;15949;55.656;37.422;2022-11-30T11:34:35;71.78;;;31.55;;
28802;SDS011;15949;55.656;37.422;2022-11-30T11:39:41;51.55;;;25.50;;
28802;SDS011;15949;55.656;37.422;2022-11-30T11:44:56;51.83;;;24.17;;
28802;SDS011;15949;55.656;37.422;2022-11-30T11:50:05;58.45;;;26.98;;
28802;SDS011;15949;55.656;37.422;2022-11-30T11:55:18;69.82;;;31.80;;
28802;SDS011;15949;55.656;37.422;2022-11-30T12:00:25;67.82;;;31.60;;
28802;SDS011;15949;55.656;37.422;2022-11-30T12:10:49;62.95;;;30.48;;
28802;SDS011;15949;55.656;37.422;2022-11-30T12:26:43;64.40;;;29.20;;
28802;SDS011;15949;55.656;37.422;2022-11-30T12:32:02;61.65;;;28.83;;
28802;SDS011;15949;55.656;37.422;2022-11-30T12:37:21;63.20;;;28.67;;
28802;SDS011;15949;55.656;37.422;2022-11-30T12:42:55;58.42;;;27.55;;
28802;SDS011;15949;55.656;37.422;2022-11-30T12:54:25;60.40;;;27.88;;
28802;SDS011;15949;55.656;37.422;2022-11-30T13:04:52;63.00;;;28.67;;
28802;SDS011;15949;55.656;37.422;2022-11-30T13:15:16;62.60;;;28.98;;
28802;SDS011;15949;55.656;37.422;2022-11-30T13:20:49;61.28;;;28.88;;
28802;SDS011;15949;55.656;37.422;2022-11-30T13:26:04;73.65;;;29.15;;
28802;SDS011;15949;55.656;37.422;2022-11-30T13:41:37;66.78;;;31.88;;
28802;SDS011;15949;55.656;37.422;2022-11-30T13:46:54;69.93;;;32.10;;
28802;SDS011;15949;55.656;37.422;2022-11-30T13:52:03;74.18;;;31.25;;
28802;SDS011;15949;55.656;37.422;2022-11-30T13:57:17;78.32;;;32.08;;
28802;SDS011;15949;55.656;37.422;2022-11-30T14:07:37;68.05;;;32.05;;
28802;SDS011;15949;55.656;37.422;2022-11-30T14:12:44;69.45;;;32.38;;
28802;SDS011;15949;55.656;37.422;2022-11-30T14:17:52;73.47;;;32.25;;
28802;SDS011;15949;55.656;37.422;2022-11-30T14:23:05;71.95;;;32.65;;
28802;SDS011;15949;55.656;37.422;2022-11-30T14:28:16;85.00;;;39.63;;
28802;SDS011;15949;55.656;37.422;2022-11-30T14:33:26;69.15;;;32.75;;
28802;SDS011;15949;55.656;37.422;2022-11-30T14:38:42;79.30;;;33.13;;
28802;SDS011;15949;55.656;37.422;2022-11-30T14:49:24;92.03;;;39.85;;
28802;SDS011;15949;55.656;37.422;2022-11-30T14:54:45;84.85;;;38.00;;
28802;SDS011;15949;55.656;37.422;2022-11-30T14:59:58;79.60;;;34.60;;
28802;SDS011;15949;55.656;37.422;2022-11-30T15:05:04;75.40;;;33.67;;
28802;SDS011;15949;55.656;37.422;2022-11-30T15:10:13;78.80;;;34.55;;
28802;SDS011;15949;55.656;37.422;2022-11-30T15:15:23;74.80;;;34.60;;
28802;SDS011;15949;55.656;37.422;2022-11-30T15:25:44;71.85;;;33.25;;
28802;SDS011;15949;55.656;37.422;2022-11-30T15:31:00;83.88;;;33.05;;
28802;SDS011;15949;55.656;37.422;2022-11-30T15:36:11;80.22;;;34.38;;
28802;SDS011;15949;55.656;37.422;2022-11-30T15:41:19;84.68;;;36.92;;
28802;SDS011;15949;55.656;37.422;2022-11-30T15:51:37;79.80;;;35.72;;
28802;SDS011;15949;55.656;37.422;2022-11-30T15:56:53;68.78;;;31.23;;
28802;SDS011;15949;55.656;37.422;2022-11-30T16:02:00;70.85;;;30.13;;
28802;SDS011;15949;55.656;37.422;2022-11-30T16:07:15;77.38;;;31.10;;
28802;SDS011;15949;55.656;37.422;2022-11-30T16:12:27;61.63;;;28.92;;
28802;SDS011;15949;55.656;37.422;2022-11-30T16:17:34;61.47;;;27.35;;
28802;SDS011;15949;55.656;37.422;2022-11-30T16:22:40;63.55;;;28.50;;
28802;SDS011;15949;55.656;37.422;2022-11-30T16:27:46;62.13;;;27.05;;
28802;SDS011;15949;55.656;37.422;2022-11-30T16:32:53;59.42;;;27.25;;
28802;SDS011;15949;55.656;37.422;2022-11-30T16:37:58;62.47;;;26.77;;
28802;SDS011;15949;55.656;37.422;2022-11-30T16:43:04;58.47;;;27.02;;
28802;SDS011;15949;55.656;37.422;2022-11-30T16:48:10;64.78;;;27.77;;
28802;SDS011;15949;55.656;37.422;2022-11-30T16:53:15;58.92;;;28.00;;
28802;SDS011;15949;55.656;37.422;2022-11-30T16:58:21;57.78;;;27.92;;
28802;SDS011;15949;55.656;37.422;2022-11-30T17:03:27;65.93;;;27.70;;
28802;SDS011;15949;55.656;37.422;2022-11-30T17:08:35;65.85;;;30.40;;
28802;SDS011;15949;55.656;37.422;2022-11-30T17:13:41;66.60;;;29.35;;
28802;SDS011;15949;55.656;37.422;2022-11-30T17:18:46;67.60;;;28.15;;
28802;SDS011;15949;55.656;37.422;2022-11-30T17:23:52;67.43;;;28.90;;
28802;SDS011;15949;55.656;37.422;2022-11-30T17:28:58;66.68;;;29.13;;
28802;SDS011;15949;55.656;37.422;2022-11-30T17:34:04;70.60;;;28.45;;
28802;SDS011;15949;55.656;37.422;2022-11-30T17:39:11;68.88;;;28.98;;
28802;SDS011;15949;55.656;37.422;2022-11-30T17:44:16;65.50;;;30.05;;
28802;SDS011;15949;55.656;37.422;2022-11-30T17:49:22;64.63;;;29.25;;
28802;SDS011;15949;55.656;37.422;2022-11-30T17:54:27;70.70;;;29.75;;
28802;SDS011;15949;55.656;37.422;2022-11-30T17:59:33;66.63;;;27.83;;
28802;SDS011;15949;55.656;37.422;2022-11-30T18:04:39;63.10;;;29.60;;
28802;SDS011;15949;55.656;37.422;2022-11-30T18:09:44;63.85;;;28.23;;
28802;SDS011;15949;55.656;37.422;2022-11-30T18:14:50;69.57;;;29.75;;
28802;SDS011;15949;55.656;37.422;2022-11-30T18:19:55;67.97;;;27.90;;
28802;SDS011;15949;55.656;37.422;2022-11-30T18:25:01;67.32;;;28.80;;
28802;SDS011;15949;55.656;37.422;2022-11-30T18:30:07;69.72;;;28.10;;
28802;SDS011;15949;55.656;37.422;2022-11-30T18:35:13;59.75;;;27.90;;
28802;SDS011;15949;55.656;37.422;2022-11-30T18:40:19;64.20;;;28.02;;
28802;SDS011;15949;55.656;37.422;2022-11-30T18:45:24;67.50;;;28.85;;
28802;SDS011;15949;55.656;37.422;2022-11-30T18:50:30;57.78;;;26.02;;
28802;SDS011;15949;55.656;37.422;2022-11-30T18:55:36;61.00;;;27.05;;
28802;SDS011;15949;55.656;37.422;2022-11-30T19:00:42;62.65;;;26.80;;
28802;SDS011;15949;55.656;37.422;2022-11-30T19:05:47;61.88;;;26.52;;
28802;SDS011;15949;55.656;37.422;2022-11-30T19:10:53;57.25;;;25.17;;
28802;SDS011;15949;55.656;37.422;2022-11-30T19:16:02;60.80;;;26.48;;
28802;SDS011;15949;55.656;37.422;2022-11-30T19:21:10;64.90;;;26.70;;
28802;SDS011;15949;55.656;37.422;2022-11-30T19:26:18;55.90;;;25.98;;
28802;SDS011;15949;55.656;37.422;2022-11-30T19:31:24;58.80;;;25.23;;
28802;SDS011;15949;55.656;37.422;2022-11-30T19:36:30;58.47;;;26.35;;
28802;SDS011;15949;55.656;37.422;2022-11-30T19:41:36;63.97;;;27.50;;
28802;SDS011;15949;55.656;37.422;2022-11-30T19:46:41;65.95;;;27.80;;
28802;SDS011;15949;55.656;37.422;2022-11-30T19:51:47;60.67;;;26.10;;
28802;SDS011;15949;55.656;37.422;2022-11-30T19:56:52;69.72;;;28.67;;
28802;SDS011;15949;55.656;37.422;2022-11-30T20:01:59;70.15;;;28.50;;
28802;SDS011;15949;55.656;37.422;2022-11-30T20:07:05;61.72;;;27.10;;
28802;SDS011;15949;55.656;37.422;2022-11-30T20:12:11;59.22;;;26.50;;
28802;SDS011;15949;55.656;37.422;2022-11-30T20:17:16;65.53;;;26.80;;
28802;SDS011;15949;55.656;37.422;2022-11-30T20:22:22;60.53;;;26.20;;
28802;SDS011;15949;55.656;37.422;2022-11-30T20:27:27;69.47;;;28.45;;
28802;SDS011;15949;55.656;37.422;2022-11-30T20:32:33;65.78;;;27.70;;
28802;SDS011;15949;55.656;37.422;2022-11-30T20:37:44;66.90;;;27.75;;
28802;SDS011;15949;55.656;37.422;2022-11-30T21:37:05;74.78;;;29.30;;
28802;SDS011;15949;55.656;37.422;2022-11-30T21:42:10;67.25;;;30.25;;
28802;SDS011;15949;55.656;37.422;2022-11-30T21:47:16;68.00;;;29.42;;
28802;SDS011;15949;55.656;37.422;2022-11-30T21:57:37;71.50;;;29.80;;
28802;SDS011;15949;55.656;37.422;2022-11-30T22:02:42;83.45;;;31.95;;
28802;SDS011;15949;55.656;37.422;2022-11-30T22:07:49;83.93;;;33.95;;
28802;SDS011;15949;55.656;37.422;2022-11-30T22:12:57;74.90;;;33.58;;
28802;SDS011;15949;55.656;37.422;2022-11-30T22:18:02;86.03;;;35.50;;
28802;SDS011;15949;55.656;37.422;2022-11-30T22:23:08;88.28;;;36.28;;
28802;SDS011;15949;55.656;37.422;2022-11-30T22:28:13;89.95;;;35.40;;
28802;SDS011;15949;55.656;37.422;2022-11-30T22:33:19;92.07;;;35.63;;
28802;SDS011;15949;55.656;37.422;2022-11-30T22:38:26;87.70;;;35.72;;
28802;SDS011;15949;55.656;37.422;2022-11-30T22:43:32;92.65;;;37.20;;
28802;SDS011;15949;55.656;37.422;2022-11-30T22:48:38;87.13;;;37.22;;
28802;SDS011;15949;55.656;37.422;2022-11-30T22:53:44;101.15;;;40.47;;
28802;SDS011;15949;55.656;37.422;2022-11-30T22:58:54;91.22;;;39.42;;
28802;SDS011;15949;55.656;37.422;2022-11-30T23:04:06;93.35;;;38.78;;
28802;SDS011;15949;55.656;37.422;2022-11-30T23:09:18;90.95;;;38.25;;
28802;SDS011;15949;55.656;37.422;2022-11-30T23:14:25;96.03;;;39.65;;
28802;SDS011;15949;55.656;37.422;2022-11-30T23:19:31;95.30;;;39.45;;
28802;SDS011;15949;55.656;37.422;2022-11-30T23:24:36;85.18;;;36.88;;
28802;SDS011;15949;55.656;37.422;2022-11-30T23:29:42;90.38;;;34.92;;
28802;SDS011;15949;55.656;37.422;2022-11-30T23:34:47;80.18;;;34.90;;
28802;SDS011;15949;55.656;37.422;2022-11-30T23:39:53;93.05;;;35.42;;
28802;SDS011;15949;55.656;37.422;2022-11-30T23:44:58;78.50;;;34.05;;
28802;SDS011;15949;55.656;37.422;2022-11-30T23:50:05;81.95;;;34.78;;
28802;SDS011;15949;55.656;37.422;2022-11-30T23:55:11;80.82;;;32.28;;
